Time;durP1;ratioP1;P1;durP2;ratioP2;P2;SDS_P1;SDS_P2;PMS_P1;PMS_P2;Temp;Humidity;BMP_temperature;BMP_pressure;BME280_temperature;BME280_humidity;BME280_pressure;Samples;Min_cycle;Max_cycle;Signal;HPM_P1;HPM_P2
2021/09/17 00:01:54;;;;;;;10.70;6.90;;;;;;;14.16;100.00;99555.22;5076200;28;20628;-72
2021/09/17 00:04:20;;;;;;;10.10;6.28;;;;;;;14.29;100.00;99538.94;5075904;28;20226;-75
2021/09/17 00:06:47;;;;;;;7.68;6.45;;;;;;;14.42;100.00;99549.69;5075188;28;20210;-73
2021/09/17 00:09:15;;;;;;;7.80;5.80;;;;;;;14.33;100.00;99550.41;5076640;28;20188;-74
2021/09/17 00:11:42;;;;;;;7.28;6.57;;;;;;;14.10;100.00;99549.41;5075766;28;20254;-74
2021/09/17 00:14:08;;;;;;;7.03;5.80;;;;;;;14.05;100.00;99544.31;5076002;28;20681;-73
2021/09/17 00:16:35;;;;;;;8.98;6.68;;;;;;;13.93;100.00;99550.66;5075925;28;20277;-73
2021/09/17 00:19:02;;;;;;;6.93;6.22;;;;;;;13.98;100.00;99541.19;5075931;28;20193;-74
2021/09/17 00:21:28;;;;;;;7.50;6.78;;;;;;;14.08;100.00;99551.34;5075883;28;20191;-73
2021/09/17 00:23:55;;;;;;;8.48;6.35;;;;;;;14.01;100.00;99548.22;5076072;28;20295;-73
2021/09/17 00:26:23;;;;;;;5.93;5.13;;;;;;;14.04;100.00;99548.03;5075628;28;20323;-73
2021/09/17 00:28:50;;;;;;;9.38;6.10;;;;;;;13.91;100.00;99542.63;5075236;28;20184;-73
2021/09/17 00:31:16;;;;;;;6.70;6.00;;;;;;;13.94;100.00;99539.69;5075612;28;20253;-73
2021/09/17 00:33:43;;;;;;;7.85;7.07;;;;;;;13.72;100.00;99536.81;5075305;28;20222;-73
2021/09/17 00:36:10;;;;;;;7.75;5.85;;;;;;;13.77;100.00;99537.34;5075269;28;20188;-73
2021/09/17 00:38:36;;;;;;;7.90;6.43;;;;;;;13.77;100.00;99534.66;5075693;28;20542;-73
2021/09/17 00:41:03;;;;;;;6.43;5.82;;;;;;;13.60;100.00;99533.16;5075731;28;20266;-73
2021/09/17 00:43:31;;;;;;;11.65;6.78;;;;;;;13.57;100.00;99533.38;5075460;28;20193;-74
2021/09/17 00:45:58;;;;;;;8.40;6.65;;;;;;;13.58;100.00;99534.22;5075183;28;20314;-74
2021/09/17 00:48:25;;;;;;;7.50;6.70;;;;;;;13.51;100.00;99529.25;5075441;28;20186;-74
2021/09/17 00:50:51;;;;;;;9.75;6.85;;;;;;;13.55;100.00;99532.63;5075168;28;20183;-74
2021/09/17 00:53:18;;;;;;;6.60;5.97;;;;;;;13.43;100.00;99528.06;5075156;28;20655;-73
2021/09/17 00:55:45;;;;;;;9.68;6.47;;;;;;;13.53;100.00;99526.44;5075402;28;20265;-73
2021/09/17 00:58:11;;;;;;;8.57;6.50;;;;;;;13.59;100.00;99523.31;5075194;28;20289;-73
2021/09/17 01:00:39;;;;;;;9.23;6.57;;;;;;;13.54;100.00;99522.75;5074969;28;20669;-72
2021/09/17 01:03:06;;;;;;;10.02;6.78;;;;;;;13.38;100.00;99517.56;5075134;28;20234;-73
2021/09/17 01:05:33;;;;;;;7.40;6.22;;;;;;;13.67;100.00;99512.78;5074924;28;20305;-73
2021/09/17 01:08:00;;;;;;;8.25;6.93;;;;;;;13.70;100.00;99507.16;5075254;28;20682;-72
2021/09/17 01:10:27;;;;;;;6.03;5.43;;;;;;;13.54;100.00;99504.72;5074922;28;20278;-73
2021/09/17 01:12:55;;;;;;;7.18;6.47;;;;;;;13.45;100.00;99508.03;5074731;28;20612;-73
2021/09/17 01:15:22;;;;;;;6.93;6.22;;;;;;;13.41;100.00;99509.25;5075200;28;20274;-74
2021/09/17 01:17:50;;;;;;;10.52;6.60;;;;;;;13.24;100.00;99496.03;5073551;28;20186;-73
2021/09/17 01:20:18;;;;;;;7.90;6.97;;;;;;;13.34;100.00;99506.13;5074770;28;20207;-74
2021/09/17 01:22:49;;;;;;;8.95;7.10;;;;;;;13.42;100.00;99502.88;5074632;28;20186;-73
2021/09/17 01:25:18;;;;;;;6.90;6.20;;;;;;;13.41;100.00;99498.44;5074605;28;20190;-74
2021/09/17 01:27:46;;;;;;;8.98;6.40;;;;;;;13.35;100.00;99490.75;5074633;28;20181;-74
2021/09/17 01:30:15;;;;;;;6.47;5.68;;;;;;;13.35;100.00;99493.47;5073967;28;20387;-74
2021/09/17 01:32:42;;;;;;;9.02;6.45;;;;;;;13.39;100.00;99494.13;5073971;28;20194;-74
2021/09/17 01:35:10;;;;;;;9.23;6.18;;;;;;;13.26;100.00;99489.53;5074479;28;20550;-73
2021/09/17 01:37:39;;;;;;;7.68;6.28;;;;;;;13.25;100.00;99492.34;5074554;28;20195;-73
2021/09/17 01:40:09;;;;;;;8.23;6.93;;;;;;;13.17;100.00;99489.34;5074440;28;20179;-73
2021/09/17 01:42:36;;;;;;;10.68;6.55;;;;;;;12.98;100.00;99485.22;5074649;28;20193;-73
2021/09/17 01:45:03;;;;;;;9.50;6.78;;;;;;;12.98;100.00;99490.63;5074346;28;20257;-73
2021/09/17 01:47:29;;;;;;;9.20;5.95;;;;;;;12.89;100.00;99493.97;5073845;28;20565;-73
2021/09/17 01:49:56;;;;;;;7.88;6.70;;;;;;;12.87;100.00;99485.13;5073730;28;20186;-73
2021/09/17 01:52:22;;;;;;;8.32;6.60;;;;;;;12.80;100.00;99481.97;5073791;28;20283;-73
2021/09/17 01:54:49;;;;;;;8.35;6.45;;;;;;;13.05;100.00;99483.81;5074053;28;20213;-73
2021/09/17 01:57:17;;;;;;;8.45;6.60;;;;;;;13.06;100.00;99482.84;5074076;28;20675;-73
2021/09/17 01:59:44;;;;;;;7.18;6.43;;;;;;;13.03;100.00;99483.06;5073865;28;20288;-73
2021/09/17 02:02:10;;;;;;;7.45;6.22;;;;;;;12.88;100.00;99478.72;5073934;28;20227;-74
2021/09/17 02:04:37;;;;;;;11.73;6.70;;;;;;;12.82;100.00;99473.72;5073802;28;20196;-74
2021/09/17 02:07:04;;;;;;;6.78;5.68;;;;;;;12.83;100.00;99470.06;5073906;28;20263;-73
2021/09/17 02:09:30;;;;;;;7.97;7.15;;;;;;;12.85;100.00;99469.00;5073814;28;20283;-74
2021/09/17 02:11:57;;;;;;;7.75;6.38;;;;;;;12.76;100.00;99476.88;5074076;28;20278;-73
2021/09/17 02:14:25;;;;;;;7.00;6.05;;;;;;;12.75;100.00;99470.59;5073424;28;20303;-73
2021/09/17 02:16:52;;;;;;;8.90;6.75;;;;;;;12.66;100.00;99464.00;5073643;28;20186;-73
2021/09/17 02:19:18;;;;;;;7.88;6.88;;;;;;;12.69;100.00;99460.22;5073840;28;20605;-73
2021/09/17 02:21:49;;;;;;;8.13;7.40;;;;;;;12.75;100.00;99461.63;5073066;28;20228;-73
2021/09/17 02:24:16;;;;;;;8.10;6.80;;;;;;;12.89;100.00;99461.56;5073765;28;20189;-73
2021/09/17 02:26:43;;;;;;;8.60;6.40;;;;;;;12.80;100.00;99460.34;5072925;28;20232;-73
2021/09/17 02:29:09;;;;;;;13.05;7.38;;;;;;;12.67;100.00;99471.13;5072948;28;20187;-73
2021/09/17 02:31:37;;;;;;;9.05;6.80;;;;;;;12.50;100.00;99468.72;5073298;28;20190;-73
2021/09/17 02:34:04;;;;;;;8.30;6.70;;;;;;;12.41;100.00;99467.50;5073794;28;20202;-73
2021/09/17 02:36:31;;;;;;;7.50;6.60;;;;;;;12.41;100.00;99463.94;5073309;28;20224;-73
2021/09/17 02:38:57;;;;;;;7.50;6.32;;;;;;;12.44;100.00;99464.59;5073587;28;20190;-73
2021/09/17 02:41:24;;;;;;;8.00;6.38;;;;;;;12.62;100.00;99465.19;5073220;28;20204;-74
2021/09/17 02:43:50;;;;;;;9.73;7.18;;;;;;;12.72;100.00;99462.72;5073544;28;20678;-73
2021/09/17 02:46:17;;;;;;;13.85;6.38;;;;;;;12.50;100.00;99453.41;5073031;28;20220;-73
2021/09/17 02:48:45;;;;;;;7.32;6.53;;;;;;;12.56;100.00;99460.19;5073518;28;20194;-73
2021/09/17 02:51:12;;;;;;;7.60;6.30;;;;;;;12.56;100.00;99464.75;5072803;28;20217;-73
2021/09/17 02:53:38;;;;;;;8.35;6.55;;;;;;;12.46;100.00;99461.81;5073371;28;20224;-73
2021/09/17 02:56:06;;;;;;;8.52;6.55;;;;;;;12.38;100.00;99456.91;5073715;28;20616;-73
2021/09/17 02:58:33;;;;;;;8.30;5.90;;;;;;;12.23;100.00;99460.66;5073338;28;20558;-73
2021/09/17 03:00:59;;;;;;;11.05;7.10;;;;;;;12.27;100.00;99467.56;5073469;28;20652;-73
2021/09/17 03:03:26;;;;;;;11.95;7.82;;;;;;;12.27;100.00;99463.03;5073285;28;20196;-72
2021/09/17 03:05:54;;;;;;;7.82;6.40;;;;;;;12.19;100.00;99451.91;5073022;28;20276;-73
2021/09/17 03:08:20;;;;;;;8.90;7.45;;;;;;;12.22;100.00;99448.13;5073183;28;20291;-73
2021/09/17 03:10:47;;;;;;;9.90;6.85;;;;;;;12.31;100.00;99450.22;5073324;28;20192;-74
2021/09/17 03:13:14;;;;;;;8.02;7.22;;;;;;;12.44;100.00;99451.09;5073400;28;20195;-73
2021/09/17 03:15:40;;;;;;;12.73;6.30;;;;;;;12.47;100.00;99444.63;5073704;28;20226;-73
2021/09/17 03:18:07;;;;;;;8.35;6.97;;;;;;;12.41;100.00;99443.19;5073061;28;20292;-73
2021/09/17 03:20:34;;;;;;;10.50;6.53;;;;;;;12.41;100.00;99454.00;5073258;28;20186;-74
2021/09/17 03:23:02;;;;;;;16.95;8.90;;;;;;;12.48;100.00;99454.44;5072705;28;20207;-73
2021/09/17 03:25:28;;;;;;;6.90;6.18;;;;;;;12.45;100.00;99449.25;5073013;28;20263;-73
2021/09/17 03:27:55;;;;;;;10.20;7.15;;;;;;;12.40;100.00;99448.72;5073256;28;20561;-73
2021/09/17 03:30:22;;;;;;;13.50;7.15;;;;;;;12.59;100.00;99446.47;5072745;28;20289;-73
2021/09/17 03:32:48;;;;;;;11.48;7.80;;;;;;;12.67;100.00;99449.53;5073062;28;20534;-73
2021/09/17 03:35:16;;;;;;;11.52;7.63;;;;;;;12.50;100.00;99449.81;5073161;28;20546;-73
2021/09/17 03:37:42;;;;;;;10.63;7.25;;;;;;;12.40;100.00;99444.19;5072728;28;20259;-73
2021/09/17 03:40:11;;;;;;;9.15;6.00;;;;;;;12.33;100.00;99440.16;5073087;28;20193;-74
2021/09/17 03:42:38;;;;;;;7.05;6.35;;;;;;;12.30;100.00;99440.34;5076864;28;20276;-73
2021/09/17 03:45:06;;;;;;;8.52;6.10;;;;;;;12.29;100.00;99441.34;5076336;28;20626;-73
2021/09/17 03:47:35;;;;;;;8.68;6.85;;;;;;;12.12;100.00;99437.09;5076579;28;20235;-73
2021/09/17 03:50:01;;;;;;;10.05;6.75;;;;;;;12.17;100.00;99434.94;5075698;28;20193;-74
2021/09/17 03:52:28;;;;;;;7.53;5.93;;;;;;;12.06;100.00;99443.75;5076861;28;20612;-74
2021/09/17 03:54:54;;;;;;;10.05;7.35;;;;;;;11.98;100.00;99440.69;5076599;28;20189;-73
2021/09/17 03:57:22;;;;;;;10.38;6.82;;;;;;;12.02;100.00;99435.97;5076474;28;20185;-74
2021/09/17 03:59:49;;;;;;;12.18;7.18;;;;;;;11.87;100.00;99437.81;5076206;28;20207;-73
2021/09/17 04:02:15;;;;;;;8.90;7.97;;;;;;;11.77;100.00;99437.56;5076057;28;20181;-74
2021/09/17 04:04:42;;;;;;;10.77;6.93;;;;;;;11.85;100.00;99439.75;5075964;28;20201;-74
2021/09/17 04:07:09;;;;;;;8.38;7.25;;;;;;;12.01;100.00;99435.09;5076473;28;20292;-74
2021/09/17 04:09:36;;;;;;;8.75;7.03;;;;;;;12.24;100.00;99430.00;5076226;28;20698;-73
2021/09/17 04:12:03;;;;;;;11.80;6.80;;;;;;;12.26;100.00;99423.53;5076190;28;20260;-72
2021/09/17 04:14:31;;;;;;;8.88;6.88;;;;;;;12.28;100.00;99418.88;5076121;28;20184;-73
2021/09/17 04:16:58;;;;;;;8.82;7.30;;;;;;;12.39;100.00;99425.38;5073300;28;20196;-73
2021/09/17 04:19:24;;;;;;;6.90;6.20;;;;;;;12.34;100.00;99435.63;5075869;28;20189;-72
2021/09/17 04:21:51;;;;;;;7.40;6.70;;;;;;;12.24;100.00;99435.41;5075843;28;20530;-73
2021/09/17 04:24:17;;;;;;;8.38;7.20;;;;;;;12.37;100.00;99436.31;5075685;28;20196;-73
2021/09/17 04:26:44;;;;;;;8.43;7.13;;;;;;;12.50;100.00;99429.09;5075072;28;20238;-74
2021/09/17 04:29:10;;;;;;;7.93;6.35;;;;;;;12.55;100.00;99425.19;5075590;28;20564;-73
2021/09/17 04:31:38;;;;;;;8.98;6.80;;;;;;;12.41;100.00;99426.13;5075141;28;20291;-73
2021/09/17 04:34:05;;;;;;;8.18;7.22;;;;;;;12.38;100.00;99426.34;5075597;28;20186;-72
2021/09/17 04:36:31;;;;;;;9.43;7.05;;;;;;;12.42;100.00;99422.47;5075263;28;20303;-72
2021/09/17 04:38:58;;;;;;;7.07;6.30;;;;;;;12.49;100.00;99427.34;5074956;28;20185;-73
2021/09/17 04:41:25;;;;;;;7.22;6.53;;;;;;;12.66;100.00;99418.09;5075108;28;20185;-73
2021/09/17 04:43:51;;;;;;;9.90;6.63;;;;;;;12.49;100.00;99421.94;5074972;28;20749;-72
2021/09/17 04:46:18;;;;;;;7.50;6.75;;;;;;;12.45;100.00;99423.13;5075022;28;20237;-73
2021/09/17 04:48:46;;;;;;;9.25;7.07;;;;;;;12.52;100.00;99421.72;5075194;28;20303;-73
2021/09/17 04:51:12;;;;;;;8.00;7.05;;;;;;;12.58;100.00;99428.56;5074830;28;20605;-73
2021/09/17 04:53:39;;;;;;;10.90;6.82;;;;;;;12.52;100.00;99429.81;5074980;28;20201;-72
2021/09/17 04:56:06;;;;;;;10.18;7.40;;;;;;;12.76;100.00;99428.25;5075003;28;20185;-73
2021/09/17 04:58:32;;;;;;;10.10;8.60;;;;;;;12.94;100.00;99426.97;5074569;28;20244;-72
2021/09/17 05:00:59;;;;;;;9.43;8.52;;;;;;;12.89;100.00;99429.13;5074594;28;20217;-73
2021/09/17 05:03:25;;;;;;;9.55;7.47;;;;;;;12.84;100.00;99431.25;5074378;28;20197;-73
2021/09/17 05:05:53;;;;;;;10.95;7.22;;;;;;;12.90;100.00;99434.41;5074616;28;20674;-73
2021/09/17 05:08:20;;;;;;;9.43;7.78;;;;;;;12.84;100.00;99434.81;5074189;28;20205;-73
2021/09/17 05:10:46;;;;;;;10.73;7.55;;;;;;;12.80;100.00;99437.84;5074876;28;20190;-73
2021/09/17 05:13:13;;;;;;;10.10;7.72;;;;;;;12.78;100.00;99439.81;5074609;28;20200;-73
2021/09/17 05:15:40;;;;;;;10.93;9.05;;;;;;;12.94;100.00;99445.88;5070246;28;20182;-72
2021/09/17 05:18:06;;;;;;;11.77;9.35;;;;;;;12.81;100.00;99447.69;5054856;28;20635;-72
2021/09/17 05:20:33;;;;;;;9.95;8.85;;;;;;;12.77;100.00;99446.19;5071504;28;20193;-72
2021/09/17 05:23:01;;;;;;;8.27;7.38;;;;;;;13.03;99.66;99453.34;5074136;28;20269;-74
2021/09/17 05:25:28;;;;;;;9.75;7.40;;;;;;;12.87;99.76;99455.38;5073788;28;20550;-72
2021/09/17 05:27:54;;;;;;;11.05;7.43;;;;;;;12.88;100.00;99457.97;5073903;28;20278;-73
2021/09/17 05:30:21;;;;;;;10.55;7.95;;;;;;;13.00;100.00;99464.38;5073438;28;20195;-74
2021/09/17 05:32:47;;;;;;;8.90;7.35;;;;;;;13.25;98.78;99457.19;5073404;28;20529;-72
2021/09/17 05:35:14;;;;;;;12.95;9.73;;;;;;;13.24;98.88;99450.06;5072346;28;20287;-73
2021/09/17 05:37:41;;;;;;;10.43;8.32;;;;;;;13.24;98.88;99455.47;5073621;28;20184;-73
2021/09/17 05:40:12;;;;;;;10.45;8.10;;;;;;;13.24;99.66;99460.88;5073875;28;20191;-73
2021/09/17 05:42:42;;;;;;;11.23;8.45;;;;;;;13.24;99.44;99452.78;5073710;28;20202;-74
2021/09/17 05:45:10;;;;;;;10.38;8.70;;;;;;;13.42;99.15;99456.88;5073633;28;20215;-73
2021/09/17 05:47:37;;;;;;;13.23;9.93;;;;;;;13.51;98.15;99455.38;5073424;28;20222;-73
2021/09/17 05:50:04;;;;;;;12.98;8.35;;;;;;;13.60;97.56;99459.25;5073447;28;20560;-74
2021/09/17 05:52:31;;;;;;;12.68;8.90;;;;;;;13.90;94.79;99458.81;5073589;28;20187;-74
2021/09/17 05:54:57;;;;;;;10.75;9.15;;;;;;;13.81;94.13;99457.66;5073069;28;20281;-75
2021/09/17 05:57:25;;;;;;;10.65;8.52;;;;;;;13.78;94.99;99457.91;5073045;28;20209;-74
2021/09/17 05:59:52;;;;;;;8.55;7.65;;;;;;;13.85;94.95;99459.16;5073176;28;20693;-73
2021/09/17 06:02:19;;;;;;;11.77;9.32;;;;;;;14.03;94.22;99456.94;5073180;28;20369;-74
2021/09/17 06:04:45;;;;;;;13.68;8.52;;;;;;;14.01;92.62;99450.75;5072159;28;20198;-73
2021/09/17 06:07:12;;;;;;;12.38;8.27;;;;;;;13.87;93.99;99446.38;5073290;28;20214;-72
2021/09/17 06:09:38;;;;;;;8.85;7.95;;;;;;;13.86;93.70;99449.19;5073448;28;20225;-73
2021/09/17 06:12:06;;;;;;;15.20;9.25;;;;;;;13.97;93.48;99446.56;5073468;28;20215;-73
2021/09/17 06:14:34;;;;;;;11.27;8.48;;;;;;;13.78;94.14;99447.06;5072997;28;20633;-74
2021/09/17 06:17:01;;;;;;;10.45;9.10;;;;;;;13.77;95.98;99453.47;5057709;28;20281;-74
2021/09/17 06:19:28;;;;;;;13.32;9.50;;;;;;;13.81;95.68;99451.38;5066633;28;20652;-74
2021/09/17 06:21:55;;;;;;;10.45;8.35;;;;;;;13.90;96.17;99445.28;5073263;28;20195;-72
2021/09/17 06:24:21;;;;;;;13.70;8.15;;;;;;;14.08;94.55;99445.75;5073012;28;20204;-74
2021/09/17 06:26:49;;;;;;;13.52;8.82;;;;;;;14.07;93.87;99453.03;5072588;28;20230;-73
2021/09/17 06:29:16;;;;;;;11.20;8.65;;;;;;;14.20;93.24;99442.16;5073072;28;20707;-73
2021/09/17 06:31:44;;;;;;;11.63;8.65;;;;;;;14.42;92.46;99435.06;5072928;28;20796;-74
2021/09/17 06:34:11;;;;;;;12.02;8.55;;;;;;;14.32;92.05;99443.06;5072564;28;20205;-74
2021/09/17 06:36:38;;;;;;;12.30;9.40;;;;;;;14.20;93.72;99442.16;5072487;28;20191;-74
2021/09/17 06:39:04;;;;;;;15.95;10.55;;;;;;;14.21;93.79;99441.16;5072805;28;20187;-74
2021/09/17 06:41:31;;;;;;;9.35;8.23;;;;;;;14.25;93.32;99448.06;5072826;28;20200;-74
2021/09/17 06:43:58;;;;;;;8.40;7.50;;;;;;;14.42;92.42;99443.19;5072505;28;20192;-74
2021/09/17 06:46:25;;;;;;;16.92;9.27;;;;;;;14.44;92.30;99449.38;5072940;28;20229;-73
2021/09/17 06:48:53;;;;;;;18.80;8.95;;;;;;;14.42;92.72;99437.78;5073100;28;20386;-73
2021/09/17 06:51:19;;;;;;;12.40;9.20;;;;;;;14.59;91.57;99448.22;5072843;28;20183;-74
2021/09/17 06:53:46;;;;;;;10.55;8.70;;;;;;;14.71;91.12;99449.13;5072478;28;20192;-72
2021/09/17 06:56:13;;;;;;;10.07;9.00;;;;;;;14.58;90.93;99443.78;5072994;28;20204;-73
2021/09/17 06:58:40;;;;;;;13.52;9.35;;;;;;;14.43;93.42;99442.25;5073158;28;20543;-72
2021/09/17 07:01:06;;;;;;;11.18;8.82;;;;;;;14.49;93.70;99444.47;5072714;28;20200;-74
2021/09/17 07:03:33;;;;;;;11.10;9.07;;;;;;;14.54;93.22;99445.88;5072341;28;20195;-72
2021/09/17 07:06:01;;;;;;;13.50;9.75;;;;;;;14.99;91.30;99439.69;5072234;28;20292;-75
2021/09/17 07:08:28;;;;;;;14.10;9.40;;;;;;;15.24;89.48;99444.03;5071762;28;20354;-74
2021/09/17 07:10:54;;;;;;;13.05;9.10;;;;;;;15.27;88.08;99442.94;5072065;28;20188;-74
2021/09/17 07:13:21;;;;;;;11.65;10.32;;;;;;;15.41;87.38;99445.38;5071075;28;20328;-74
2021/09/17 07:15:48;;;;;;;12.85;9.38;;;;;;;15.64;86.39;99447.09;5073229;28;20199;-74
2021/09/17 07:18:14;;;;;;;11.68;9.85;;;;;;;15.72;84.98;99438.38;5075704;28;20195;-74
2021/09/17 07:20:42;;;;;;;13.88;12.15;;;;;;;15.51;86.20;99443.66;5075352;28;20195;-74
2021/09/17 07:23:10;;;;;;;15.73;11.02;;;;;;;15.65;86.30;99439.81;5075478;28;20192;-73
2021/09/17 07:25:38;;;;;;;10.73;9.13;;;;;;;15.77;85.73;99440.69;5075028;28;20245;-73
2021/09/17 07:28:05;;;;;;;11.85;9.63;;;;;;;15.89;84.62;99439.66;5075025;28;20200;-74
2021/09/17 07:30:32;;;;;;;17.38;11.10;;;;;;;15.73;85.50;99431.06;5075782;28;20188;-74
2021/09/17 07:32:59;;;;;;;13.13;11.25;;;;;;;15.84;85.46;99431.91;5074892;28;20200;-74
2021/09/17 07:35:27;;;;;;;19.33;11.45;;;;;;;16.22;83.21;99430.56;5075663;28;20271;-74
2021/09/17 07:37:53;;;;;;;13.15;10.10;;;;;;;16.42;81.39;99431.59;5075122;28;20272;-73
2021/09/17 07:40:21;;;;;;;13.68;10.93;;;;;;;16.73;79.42;99439.81;5074425;28;20196;-73
2021/09/17 07:42:50;;;;;;;21.92;15.35;;;;;;;16.83;78.49;99431.78;5075751;28;20177;-73
2021/09/17 07:45:17;;;;;;;16.58;11.13;;;;;;;16.92;77.89;99432.84;5075369;28;20258;-73
2021/09/17 07:47:44;;;;;;;13.00;10.75;;;;;;;17.04;77.42;99431.78;5075656;28;20231;-73
2021/09/17 07:50:13;;;;;;;22.98;15.73;;;;;;;16.98;77.38;99438.63;5074619;28;20276;-73
2021/09/17 07:52:39;;;;;;;16.73;14.80;;;;;;;17.13;76.79;99435.53;5074301;28;20254;-74
2021/09/17 07:55:07;;;;;;;17.17;12.82;;;;;;;16.91;77.89;99431.13;5075072;28;20181;-73
2021/09/17 07:57:35;;;;;;;17.40;11.43;;;;;;;16.96;77.81;99437.00;5074818;28;20208;-74
2021/09/17 08:00:02;;;;;;;21.92;10.75;;;;;;;16.92;77.84;99432.84;5074472;28;20220;-72
2021/09/17 08:02:29;;;;;;;15.18;11.77;;;;;;;17.09;77.78;99435.81;5075057;28;20201;-73
2021/09/17 08:04:55;;;;;;;16.30;10.15;;;;;;;17.20;76.61;99426.69;5075175;28;20192;-74
2021/09/17 08:07:22;;;;;;;15.85;10.77;;;;;;;17.08;77.12;99439.53;5075131;28;20486;-72
2021/09/17 08:09:48;;;;;;;25.17;11.20;;;;;;;17.28;77.44;99437.78;5075030;28;20262;-74
2021/09/17 08:12:15;;;;;;;14.63;11.35;;;;;;;17.43;77.00;99435.53;5074029;28;20193;-74
2021/09/17 08:14:43;;;;;;;10.90;9.50;;;;;;;17.64;75.98;99432.75;5073553;28;20293;-73
2021/09/17 08:17:10;;;;;;;15.52;13.20;;;;;;;17.86;74.88;99429.00;5057278;28;20653;-74
2021/09/17 08:19:36;;;;;;;13.38;11.20;;;;;;;18.04;74.35;99434.59;5054182;28;20188;-73
2021/09/17 08:22:03;;;;;;;13.40;11.43;;;;;;;18.06;73.86;99426.28;5053892;28;20184;-74
2021/09/17 08:24:30;;;;;;;12.70;10.98;;;;;;;18.28;72.43;99436.91;5053770;28;20214;-74
2021/09/17 08:26:57;;;;;;;16.75;11.18;;;;;;;18.49;71.46;99431.31;5052883;28;20240;-74
2021/09/17 08:29:24;;;;;;;14.48;11.13;;;;;;;18.76;69.56;99437.91;5054104;28;20231;-73
2021/09/17 08:31:54;;;;;;;19.33;10.57;;;;;;;19.02;68.60;99438.19;5066719;28;20191;-73
2021/09/17 08:34:21;;;;;;;13.80;11.88;;;;;;;19.26;66.75;99432.22;5075047;28;21020;-73
2021/09/17 08:36:47;;;;;;;15.77;12.27;;;;;;;19.52;65.40;99429.69;5074703;28;20245;-74
2021/09/17 08:39:15;;;;;;;16.20;12.00;;;;;;;19.61;65.30;99432.53;5074625;28;20274;-74
2021/09/17 08:41:43;;;;;;;14.43;11.60;;;;;;;19.73;65.15;99431.34;5074487;28;20208;-72
2021/09/17 08:44:10;;;;;;;14.27;11.43;;;;;;;19.65;65.08;99434.81;5074152;28;20438;-74
2021/09/17 08:46:39;;;;;;;15.53;11.87;;;;;;;19.86;64.22;99422.81;5074464;28;20235;-73
2021/09/17 08:49:08;;;;;;;15.60;11.70;;;;;;;20.01;63.53;99423.97;5074165;28;20489;-74
2021/09/17 08:51:35;;;;;;;15.25;11.50;;;;;;;20.24;62.61;99434.47;5059519;28;20505;-73
2021/09/17 08:54:04;;;;;;;16.23;11.70;;;;;;;20.17;62.92;99429.63;5054112;28;20197;-73
2021/09/17 08:56:31;;;;;;;15.63;11.83;;;;;;;20.08;63.24;99436.03;5066757;28;20904;-72
2021/09/17 08:58:58;;;;;;;12.83;10.30;;;;;;;20.16;63.52;99438.84;5074022;28;20435;-73
2021/09/17 09:01:26;;;;;;;11.50;9.63;;;;;;;19.69;65.18;99446.31;5074048;28;20502;-73
2021/09/17 09:03:56;;;;;;;13.18;11.75;;;;;;;19.83;65.82;99443.09;5074254;28;20423;-73
2021/09/17 09:06:24;;;;;;;12.27;10.50;;;;;;;19.95;65.08;99435.53;5074342;28;20203;-73
2021/09/17 09:08:51;;;;;;;10.75;9.65;;;;;;;20.00;64.82;99438.66;5073854;28;20508;-74
2021/09/17 09:11:19;;;;;;;12.55;9.32;;;;;;;20.05;65.08;99430.00;5073619;28;20563;-73
2021/09/17 09:14:00;;;;;;;10.07;9.03;;;;;;;20.37;64.05;99429.47;5074503;28;20589;-73
2021/09/17 09:16:27;;;;;;;12.50;10.60;;;;;;;20.62;62.66;99427.84;5074008;28;20429;-74
2021/09/17 09:18:54;;;;;;;10.00;9.10;;;;;;;20.65;61.85;99423.97;5073999;28;20438;-73
2021/09/17 09:21:27;;;;;;;9.77;8.77;;;;;;;20.28;64.01;99424.94;5073549;28;20433;-73
2021/09/17 09:24:10;;;;;;;12.60;9.63;;;;;;;19.93;65.78;99434.84;5073683;28;20423;-73
2021/09/17 09:26:38;;;;;;;10.50;9.20;;;;;;;20.05;64.96;99424.53;5073262;28;20528;-73
2021/09/17 09:29:05;;;;;;;11.43;9.97;;;;;;;19.74;65.56;99428.47;5073338;28;20470;-73
2021/09/17 09:31:43;;;;;;;9.77;8.77;;;;;;;20.01;64.57;99423.97;5073094;28;20449;-72
2021/09/17 09:34:11;;;;;;;11.73;9.67;;;;;;;19.90;64.48;99426.91;5073188;28;20459;-74
2021/09/17 09:36:39;;;;;;;10.80;9.13;;;;;;;20.27;63.89;99421.34;5073001;28;21056;-73
2021/09/17 09:39:06;;;;;;;9.30;7.93;;;;;;;20.37;63.71;99416.69;5071842;28;20443;-73
2021/09/17 09:41:34;;;;;;;10.50;9.00;;;;;;;20.18;64.06;99417.69;5073292;28;20780;-73
2021/09/17 09:44:02;;;;;;;8.53;7.23;;;;;;;20.64;62.72;99419.50;5073041;28;20451;-73
2021/09/17 09:46:31;;;;;;;15.33;10.30;;;;;;;21.05;61.80;99420.66;5074735;28;20566;-73
2021/09/17 09:49:13;;;;;;;11.00;8.73;;;;;;;21.49;59.88;99414.28;5072793;28;20473;-73
2021/09/17 09:51:55;;;;;;;12.07;10.80;;;;;;;21.42;55.67;99414.06;5057569;28;20519;-73
2021/09/17 09:54:23;;;;;;;13.33;9.93;;;;;;;21.76;54.91;99413.19;5053211;28;20460;-73
2021/09/17 09:56:50;;;;;;;9.90;9.00;;;;;;;22.08;55.37;99405.06;5053559;28;20890;-72
2021/09/17 09:59:21;;;;;;;11.30;9.77;;;;;;;22.60;54.14;99403.97;5053343;28;20975;-75
2021/09/17 10:01:48;;;;;;;12.10;10.97;;;;;;;22.86;52.56;99402.91;5052749;28;20465;-74
2021/09/17 10:04:16;;;;;;;14.77;11.90;;;;;;;23.00;52.59;99394.00;5055775;28;20453;-73
2021/09/17 10:06:45;;;;;;;14.03;11.00;;;;;;;22.42;53.98;99393.16;5073339;28;20419;-74
2021/09/17 10:09:12;;;;;;;9.40;8.50;;;;;;;21.61;56.87;99402.00;5072715;28;20558;-73
2021/09/17 10:11:41;;;;;;;10.00;9.00;;;;;;;21.65;57.40;99395.16;5072912;28;20904;-73
2021/09/17 10:14:12;;;;;;;9.13;8.23;;;;;;;21.37;57.99;99395.38;5072567;28;20518;-73
2021/09/17 10:16:41;;;;;;;13.73;9.30;;;;;;;20.76;60.66;99386.25;5073047;28;20884;-73
2021/09/17 10:19:08;;;;;;;8.90;8.00;;;;;;;20.37;61.62;99383.88;5072234;28;20464;-74
2021/09/17 10:21:56;;;;;;;8.20;7.50;;;;;;;21.14;59.46;99386.88;5070886;28;20521;-74
2021/09/17 10:24:39;;;;;;;7.97;6.77;;;;;;;21.42;58.18;99384.81;5072049;28;20427;-74
2021/09/17 10:27:10;;;;;;;10.40;8.20;;;;;;;21.53;57.71;99382.81;5071964;28;20571;-74
2021/09/17 10:29:38;;;;;;;10.40;8.23;;;;;;;21.71;56.61;99386.31;5072444;28;20481;-74
2021/09/17 10:32:07;;;;;;;9.10;8.20;;;;;;;21.50;57.54;99383.13;5072257;28;20879;-74
2021/09/17 10:34:40;;;;;;;8.23;7.40;;;;;;;21.38;57.97;99385.25;5071957;28;20423;-74
2021/09/17 10:37:10;;;;;;;8.30;7.43;;;;;;;21.32;57.87;99384.03;5072628;28;20445;-74
2021/09/17 10:39:37;;;;;;;8.33;7.40;;;;;;;21.45;56.35;99387.19;5072220;28;20442;-74
2021/09/17 10:42:13;;;;;;;9.40;8.07;;;;;;;21.68;55.80;99381.13;5071894;28;20446;-75
2021/09/17 10:45:16;;;;;;;9.50;8.47;;;;;;;21.70;56.07;99379.09;5070693;28;20502;-74
2021/09/17 10:48:00;;;;;;;9.37;8.03;;;;;;;21.30;56.02;99375.13;5065017;28;20470;-73
2021/09/17 10:50:42;;;;;;;11.70;9.40;;;;;;;21.03;57.28;99376.19;5069025;28;20498;-74
2021/09/17 10:53:11;;;;;;;9.50;8.60;;;;;;;21.27;56.28;99375.44;5075831;28;20443;-73
2021/09/17 10:56:02;;;;;;;9.50;8.23;;;;;;;21.78;55.37;99367.31;5076013;28;20816;-74
2021/09/17 10:58:30;;;;;;;12.30;7.90;;;;;;;21.96;54.04;99379.00;5076284;28;20430;-72
2021/09/17 11:00:59;;;;;;;7.93;7.13;;;;;;;22.20;53.17;99358.13;5076333;28;20447;-73
2021/09/17 11:03:57;;;;;;;9.33;7.13;;;;;;;22.30;52.89;99364.34;5076445;28;20423;-72
2021/09/17 11:06:26;;;;;;;8.40;7.13;;;;;;;22.63;51.93;99359.69;5075861;28;20439;-74
2021/09/17 11:08:56;;;;;;;8.33;6.83;;;;;;;22.32;52.02;99355.94;5075648;28;20477;-73
2021/09/17 11:11:28;;;;;;;7.60;6.90;;;;;;;21.95;52.60;99349.84;5076589;28;20787;-73
2021/09/17 11:13:56;;;;;;;9.20;8.00;;;;;;;22.06;52.54;99357.75;5075627;28;20526;-74
2021/09/17 11:16:24;;;;;;;9.63;8.73;;;;;;;21.90;51.61;99354.16;5076055;28;20506;-73
2021/09/17 11:18:57;;;;;;;10.13;6.80;;;;;;;21.89;51.83;99347.81;5075306;28;20866;-73
2021/09/17 11:21:24;;;;;;;9.10;7.20;;;;;;;22.07;49.94;99342.19;5075033;28;20454;-75
2021/09/17 11:23:52;;;;;;;6.97;6.37;;;;;;;22.82;48.42;99352.16;5075616;28;20433;-75
2021/09/17 11:26:21;;;;;;;6.10;5.00;;;;;;;23.43;44.93;99350.63;5074871;28;20524;-72
2021/09/17 11:28:59;;;;;;;7.23;5.20;;;;;;;23.63;45.10;99344.69;5075466;28;20473;-73